Time;durP1;ratioP1;P1;durP2;ratioP2;P2;SDS_P1;SDS_P2;PMS_P1;PMS_P2;Temp;Humidity;BMP_temperature;BMP_pressure;BME280_temperature;BME280_humidity;BME280_pressure;Samples;Min_cycle;Max_cycle;Signal;HPM_P1;HPM_P2
2022/06/23 00:00:29;;;;;;;6.00;2.60;;;;;;;19.53;58.42;100328.94;695811;28;1140;-79
2022/06/23 00:00:55;;;;;;;4.70;2.50;;;;;;;19.62;59.53;100332.94;693160;28;955;-78
2022/06/23 00:01:19;;;;;;;3.80;2.40;;;;;;;19.62;59.49;100331.16;693637;28;1973;-78
2022/06/23 00:01:50;;;;;;;3.78;2.50;;;;;;;19.63;59.34;100335.50;688676;28;4403;-79
2022/06/23 00:02:22;;;;;;;3.88;2.50;;;;;;;19.60;60.55;100326.84;692614;28;1451;-79
2022/06/23 00:02:43;;;;;;;4.18;2.78;;;;;;;19.65;59.83;100338.97;695562;28;935;-78
2022/06/23 00:03:05;;;;;;;4.45;2.72;;;;;;;19.64;59.89;100342.53;696305;28;1752;-79
2022/06/23 00:03:30;;;;;;;4.70;2.90;;;;;;;19.57;60.40;100330.50;693086;28;964;-78
2022/06/23 00:03:54;;;;;;;4.10;2.60;;;;;;;19.54;59.46;100333.31;692759;28;1772;-79
2022/06/23 00:04:21;;;;;;;4.85;2.40;;;;;;;19.64;59.61;100334.56;690845;28;1053;-78
2022/06/23 00:04:44;;;;;;;3.78;2.53;;;;;;;19.58;59.46;100337.53;692649;28;4300;-78
2022/06/23 00:05:14;;;;;;;4.18;2.42;;;;;;;19.56;59.97;100329.66;691673;28;1615;-78
2022/06/23 00:05:40;;;;;;;5.25;2.60;;;;;;;19.66;58.83;100340.69;697440;28;1834;-78
2022/06/23 00:06:18;;;;;;;5.78;2.65;;;;;;;19.64;58.81;100337.22;695087;28;1034;-78
2022/06/23 00:06:46;;;;;;;4.63;2.80;;;;;;;19.61;59.40;100333.88;696382;28;2354;-78
2022/06/23 00:07:30;;;;;;;4.43;2.55;;;;;;;19.61;58.63;100340.03;695376;28;1666;-78
2022/06/23 00:07:55;;;;;;;3.67;2.50;;;;;;;19.57;59.11;100336.66;694670;28;4278;-78
2022/06/23 00:08:15;;;;;;;4.03;2.65;;;;;;;19.54;59.22;100335.97;695972;28;1202;-78
2022/06/23 00:08:44;;;;;;;5.03;2.60;;;;;;;19.53;59.08;100334.22;697073;28;1156;-79
2022/06/23 00:09:40;;;;;;;4.53;2.55;;;;;;;19.53;59.02;100339.53;695190;28;967;-78
2022/06/23 00:10:04;;;;;;;5.30;2.70;;;;;;;19.52;60.52;100337.81;693932;28;992;-78
2022/06/23 00:10:26;;;;;;;5.43;2.78;;;;;;;19.58;59.10;100342.84;690693;28;1444;-78
2022/06/23 00:11:00;;;;;;;4.50;2.40;;;;;;;19.60;58.58;100338.31;689051;28;4267;-78
2022/06/23 00:11:24;;;;;;;4.35;2.55;;;;;;;19.59;59.19;100331.28;692651;28;1754;-78
2022/06/23 00:11:48;;;;;;;4.10;2.47;;;;;;;19.57;59.51;100339.31;693305;28;1390;-78
2022/06/23 00:12:17;;;;;;;4.38;2.50;;;;;;;19.59;59.68;100344.53;692587;28;932;-78
2022/06/23 00:12:41;;;;;;;4.72;2.65;;;;;;;19.56;58.96;100337.63;690189;28;1507;-78
2022/06/23 00:13:03;;;;;;;6.75;2.83;;;;;;;19.56;59.19;100342.03;687101;28;1382;-78
2022/06/23 00:13:37;;;;;;;4.90;2.50;;;;;;;19.54;58.94;100335.97;686625;28;1173;-78
2022/06/23 00:14:13;;;;;;;4.30;2.60;;;;;;;19.52;59.97;100335.16;685486;28;5029;-78
2022/06/23 00:14:33;;;;;;;5.78;2.53;;;;;;;19.49;59.76;100345.91;689270;28;3530;-78
2022/06/23 00:14:59;;;;;;;4.97;2.90;;;;;;;19.48;59.76;100338.88;693207;28;1116;-78
2022/06/23 00:15:25;;;;;;;3.65;2.50;;;;;;;19.49;59.33;100344.13;691554;28;1526;-78
2022/06/23 00:15:45;;;;;;;4.63;2.50;;;;;;;19.49;59.44;100345.91;692970;28;883;-78
2022/06/23 00:16:22;;;;;;;4.13;2.45;;;;;;;19.48;59.01;100336.22;695235;28;1344;-78
2022/06/23 00:16:44;;;;;;;4.47;2.78;;;;;;;19.49;58.81;100346.75;694375;28;4386;-78
2022/06/23 00:17:21;;;;;;;4.28;2.78;;;;;;;19.48;58.93;100345.06;690464;28;1254;-78
2022/06/23 00:17:43;;;;;;;4.13;2.30;;;;;;;19.49;59.45;100349.41;691041;28;1332;-78
2022/06/23 00:18:16;;;;;;;4.30;2.50;;;;;;;19.49;59.26;100343.25;689667;28;1275;-78
2022/06/23 00:18:37;;;;;;;4.18;2.70;;;;;;;19.50;59.06;100345.00;690621;28;1366;-78
2022/06/23 00:18:58;;;;;;;4.05;2.40;;;;;;;19.50;58.98;100337.88;692191;28;1507;-78
2022/06/23 00:19:18;;;;;;;4.43;2.50;;;;;;;19.51;58.92;100346.72;689746;28;1479;-78
2022/06/23 00:19:39;;;;;;;4.17;2.67;;;;;;;19.51;59.10;100346.72;687208;28;4345;-78
2022/06/23 00:20:05;;;;;;;4.30;2.60;;;;;;;19.50;59.20;100348.50;685032;28;1472;-78
2022/06/23 00:20:38;;;;;;;5.07;2.70;;;;;;;19.50;59.09;100350.28;688869;28;1298;-79
2022/06/23 00:21:03;;;;;;;4.38;2.55;;;;;;;19.50;58.99;100358.25;689530;28;1203;-78
2022/06/23 00:21:30;;;;;;;4.15;2.42;;;;;;;19.49;59.14;100344.13;690574;28;1975;-78
2022/06/23 00:21:53;;;;;;;3.42;2.33;;;;;;;19.50;59.42;100352.94;693475;28;892;-78
2022/06/23 00:22:16;;;;;;;3.50;2.40;;;;;;;19.47;59.08;100351.28;692303;28;1325;-79
2022/06/23 00:22:41;;;;;;;3.88;2.58;;;;;;;19.47;59.33;100361.03;693836;28;1523;-79
2022/06/23 00:23:11;;;;;;;4.28;2.63;;;;;;;19.47;59.43;100355.75;697577;28;4811;-79
2022/06/23 00:23:45;;;;;;;3.83;2.60;;;;;;;19.45;59.45;100355.78;697158;28;904;-79
2022/06/23 00:24:17;;;;;;;4.32;2.65;;;;;;;19.45;59.49;100354.94;698530;28;1250;-79
2022/06/23 00:24:40;;;;;;;6.17;2.60;;;;;;;19.44;59.42;100355.88;694425;28;1870;-79
2022/06/23 00:25:03;;;;;;;4.93;2.53;;;;;;;19.44;59.54;100358.50;693848;28;1173;-80
2022/06/23 00:25:28;;;;;;;4.93;2.60;;;;;;;19.40;59.36;100366.63;690330;28;960;-79
2022/06/23 00:25:55;;;;;;;4.70;2.65;;;;;;;19.40;59.75;100358.66;690259;28;5566;-79
2022/06/23 00:26:22;;;;;;;4.90;2.70;;;;;;;19.40;59.42;100358.66;690069;28;1089;-79
2022/06/23 00:26:43;;;;;;;4.68;2.50;;;;;;;19.40;59.23;100350.72;687431;28;1566;-78
2022/06/23 00:27:04;;;;;;;4.67;2.40;;;;;;;19.39;59.98;100353.44;688022;28;1182;-79
2022/06/23 00:27:31;;;;;;;3.88;2.70;;;;;;;19.38;59.67;100352.59;694277;28;1240;-79
2022/06/23 00:27:53;;;;;;;4.13;2.65;;;;;;;19.37;59.78;100353.50;693196;28;1032;-79
2022/06/23 00:28:18;;;;;;;4.13;2.63;;;;;;;19.38;60.92;100346.41;692022;28;1901;-79
2022/06/23 00:28:52;;;;;;;4.07;2.45;;;;;;;19.37;60.76;100350.88;694667;28;4292;-79
2022/06/23 00:29:15;;;;;;;4.65;2.80;;;;;;;19.37;60.85;100350.88;694394;28;1245;-79
2022/06/23 00:29:35;;;;;;;4.40;2.60;;;;;;;19.37;60.96;100353.50;693477;28;899;-78
2022/06/23 00:30:01;;;;;;;4.50;2.60;;;;;;;19.33;61.23;100381.09;696807;28;1904;-79
2022/06/23 00:30:26;;;;;;;4.50;2.50;;;;;;;19.31;61.01;100351.13;700619;28;1302;-79
2022/06/23 00:30:58;;;;;;;5.20;2.80;;;;;;;19.30;61.50;100356.50;700332;28;966;-79
2022/06/23 00:31:34;;;;;;;4.22;2.60;;;;;;;19.28;60.16;100351.28;696269;28;1439;-79
2022/06/23 00:31:54;;;;;;;4.20;2.70;;;;;;;19.31;60.04;100348.47;690450;28;4297;-79
2022/06/23 00:32:15;;;;;;;4.50;2.80;;;;;;;19.32;61.24;100342.25;691776;28;1236;-79
2022/06/23 00:32:35;;;;;;;3.97;2.60;;;;;;;19.36;61.42;100341.19;693614;28;1179;-79
2022/06/23 00:33:24;;;;;;;4.47;2.57;;;;;;;19.35;61.84;100347.41;693557;28;1200;-78
2022/06/23 00:33:44;;;;;;;4.30;2.67;;;;;;;19.32;60.70;100349.34;691702;28;864;-79
2022/06/23 00:34:34;;;;;;;4.32;2.60;;;;;;;19.38;59.94;100342.00;693469;28;1369;-79
2022/06/23 00:35:04;;;;;;;3.80;2.40;;;;;;;19.40;60.53;100339.25;687897;28;4277;-79
2022/06/23 00:35:26;;;;;;;5.05;2.65;;;;;;;19.40;59.88;100345.41;688006;28;1288;-79
2022/06/23 00:35:48;;;;;;;4.28;2.50;;;;;;;19.38;60.17;100336.69;692621;28;1408;-79
2022/06/23 00:36:17;;;;;;;5.00;2.65;;;;;;;19.37;61.60;100340.25;693020;28;1335;-79
2022/06/23 00:36:50;;;;;;;3.90;2.50;;;;;;;19.37;62.11;100340.25;693017;28;1191;-79
2022/06/23 00:37:10;;;;;;;3.90;2.60;;;;;;;19.33;62.83;100341.34;693738;28;897;-79
2022/06/23 00:37:31;;;;;;;3.93;2.50;;;;;;;19.32;62.16;100338.75;694280;28;980;-79
2022/06/23 00:37:52;;;;;;;4.10;2.50;;;;;;;19.28;64.01;100339.84;695640;28;4315;-79
2022/06/23 00:38:22;;;;;;;4.07;2.50;;;;;;;19.26;62.34;100337.25;693919;28;1334;-79
2022/06/23 00:38:43;;;;;;;4.43;2.60;;;;;;;19.23;62.79;100345.31;693909;28;1275;-79
2022/06/23 00:39:06;;;;;;;4.28;2.40;;;;;;;19.21;62.71;100339.25;692456;28;1247;-79
2022/06/23 00:39:42;;;;;;;4.10;2.47;;;;;;;19.17;63.36;100333.22;694625;28;1444;-79
2022/06/23 00:40:11;;;;;;;4.47;2.60;;;;;;;19.23;63.07;100332.94;694422;28;944;-79
2022/06/23 00:40:31;;;;;;;4.07;2.58;;;;;;;19.21;64.70;100339.25;694925;28;971;-79
2022/06/23 00:40:56;;;;;;;4.43;2.47;;;;;;;19.16;64.03;100335.94;697200;28;4300;-79
2022/06/23 00:41:23;;;;;;;5.55;2.70;;;;;;;19.14;63.77;100332.50;694136;28;1959;-79
2022/06/23 00:41:44;;;;;;;4.28;2.70;;;;;;;19.11;63.86;100335.31;691146;28;1802;-79
2022/06/23 00:42:22;;;;;;;5.38;2.65;;;;;;;19.06;64.29;100340.81;694276;28;1637;-79
2022/06/23 00:43:02;;;;;;;4.45;2.47;;;;;;;19.02;64.81;100329.50;693491;28;1441;-79
2022/06/23 00:43:24;;;;;;;5.05;2.63;;;;;;;18.99;64.07;100336.72;693845;28;1554;-79
2022/06/23 00:43:49;;;;;;;3.65;2.50;;;;;;;19.02;64.22;100334.81;693877;28;4344;-78
2022/06/23 00:44:26;;;;;;;4.80;2.53;;;;;;;18.99;65.16;100336.72;690138;28;1224;-79
2022/06/23 00:44:57;;;;;;;3.85;2.60;;;;;;;19.02;62.74;100329.50;693089;28;1232;-79
2022/06/23 00:45:31;;;;;;;4.57;2.80;;;;;;;19.09;62.54;100335.34;696661;28;1241;-79
2022/06/23 00:46:05;;;;;;;3.97;2.60;;;;;;;19.16;61.79;100333.28;695342;28;1251;-79
2022/06/23 00:46:32;;;;;;;5.13;2.70;;;;;;;19.13;63.44;100336.09;691099;28;911;-78
2022/06/23 00:46:59;;;;;;;4.38;2.65;;;;;;;19.09;64.11;100339.81;695778;28;4370;-79
2022/06/23 00:47:25;;;;;;;5.10;2.85;;;;;;;19.05;63.96;100334.66;696291;28;1166;-78
2022/06/23 00:48:13;;;;;;;5.53;2.60;;;;;;;19.04;63.50;100326.78;695700;28;1222;-78
2022/06/23 00:48:43;;;;;;;4.40;2.53;;;;;;;19.04;63.75;100340.88;701657;28;1126;-78
2022/06/23 00:49:46;;;;;;;4.35;2.70;;;;;;;19.00;63.82;100336.63;696825;28;1665;-78
2022/06/23 00:50:27;;;;;;;4.05;2.70;;;;;;;18.96;64.48;100345.66;692909;28;4911;-79
2022/06/23 00:51:01;;;;;;;4.68;2.90;;;;;;;19.00;62.69;100335.78;692114;28;1444;-79
2022/06/23 00:51:29;;;;;;;4.53;2.72;;;;;;;19.03;62.66;100340.94;691489;28;1134;-79
2022/06/23 00:51:54;;;;;;;4.55;2.70;;;;;;;19.13;61.53;100342.22;694459;28;1350;-79
2022/06/23 00:52:33;;;;;;;4.75;2.80;;;;;;;19.17;61.85;100337.66;696669;28;1015;-79
2022/06/23 00:53:20;;;;;;;3.92;2.80;;;;;;;19.18;61.34;100340.25;692550;28;4341;-78
2022/06/23 00:53:58;;;;;;;4.25;2.60;;;;;;;19.19;63.16;100334.03;696323;28;1822;-79
2022/06/23 00:54:38;;;;;;;5.43;2.80;;;;;;;19.26;61.00;100336.38;699339;28;1116;-78
2022/06/23 00:55:08;;;;;;;4.35;2.67;;;;;;;19.25;60.89;100332.88;697203;28;904;-79
2022/06/23 00:55:34;;;;;;;4.45;2.70;;;;;;;19.28;60.95;100335.38;696022;28;899;-79
2022/06/23 00:56:18;;;;;;;4.55;2.70;;;;;;;19.26;60.86;100337.25;696255;28;4236;-80
2022/06/23 00:56:55;;;;;;;4.55;2.75;;;;;;;19.26;60.82;100328.44;696256;28;1378;-79
2022/06/23 00:57:31;;;;;;;4.22;2.83;;;;;;;19.29;61.01;100336.25;690172;28;919;-79
2022/06/23 00:58:00;;;;;;;4.10;2.78;;;;;;;19.27;62.75;100332.81;690888;28;888;-79
2022/06/23 00:58:47;;;;;;;4.30;2.60;;;;;;;19.34;62.31;100329.81;691828;28;1211;-79
2022/06/23 00:59:13;;;;;;;3.67;2.50;;;;;;;19.33;61.30;100335.19;694429;28;4905;-79
2022/06/23 00:59:34;;;;;;;4.70;2.80;;;;;;;19.33;60.91;100330.72;696675;28;859;-79
2022/06/23 01:00:01;;;;;;;5.07;2.77;;;;;;;19.31;61.98;100337.03;693932;28;1218;-79
2022/06/23 01:00:29;;;;;;;5.20;2.67;;;;;;;19.29;61.55;100350.34;695620;28;1341;-79
2022/06/23 01:00:53;;;;;;;4.57;2.72;;;;;;;19.28;61.50;100326.59;695530;28;882;-79
2022/06/23 01:01:31;;;;;;;4.50;2.63;;;;;;;19.25;61.51;100330.22;698709;28;1950;-79
2022/06/23 01:02:19;;;;;;;3.58;2.53;;;;;;;19.25;61.88;100326.72;697422;28;5459;-79
2022/06/23 01:02:47;;;;;;;4.22;2.60;;;;;;;19.25;61.52;100334.69;698323;28;1045;-78
2022/06/23 01:03:07;;;;;;;4.35;2.63;;;;;;;19.25;61.14;100324.94;697386;28;1108;-78
2022/06/23 01:03:36;;;;;;;4.18;2.78;;;;;;;19.26;61.14;100329.31;695880;28;1307;-78
2022/06/23 01:04:05;;;;;;;4.40;2.70;;;;;;;19.23;61.78;100319.72;698210;28;1480;-79
2022/06/23 01:04:30;;;;;;;4.00;2.50;;;;;;;19.27;61.78;100328.34;699655;28;1403;-78
2022/06/23 01:04:59;;;;;;;3.38;2.50;;;;;;;19.30;60.84;100320.28;701555;27;4248;-78
2022/06/23 01:05:28;;;;;;;5.15;2.92;;;;;;;19.32;60.76;100326.34;700257;28;1422;-78
2022/06/23 01:05:54;;;;;;;4.35;2.70;;;;;;;19.30;63.03;100324.69;701232;28;1358;-78
2022/06/23 01:06:38;;;;;;;5.28;2.90;;;;;;;19.28;63.49;100324.78;700037;28;1261;-78
2022/06/23 01:07:38;;;;;;;3.88;2.75;;;;;;;19.23;62.01;100325.00;697612;28;986;-78
2022/06/23 01:08:09;;;;;;;4.00;2.70;;;;;;;19.24;61.66;100317.91;695213;28;5613;-78
2022/06/23 01:08:43;;;;;;;4.53;2.53;;;;;;;19.26;60.78;100318.72;696059;28;1127;-79
2022/06/23 01:09:16;;;;;;;4.50;2.80;;;;;;;19.30;61.16;100322.06;694188;28;1813;-78
2022/06/23 01:09:55;;;;;;;4.07;2.50;;;;;;;19.30;61.95;100322.94;695395;28;907;-78
2022/06/23 01:10:32;;;;;;;4.07;2.70;;;;;;;19.27;62.19;100315.09;699459;28;1362;-78
2022/06/23 01:10:56;;;;;;;3.50;2.60;;;;;;;19.26;62.38;100323.13;697571;28;4224;-78
2022/06/23 01:11:23;;;;;;;4.60;2.50;;;;;;;19.20;61.88;100313.69;695831;28;1398;-79
2022/06/23 01:11:57;;;;;;;3.70;2.50;;;;;;;19.29;61.14;100321.19;699247;28;1532;-79
2022/06/23 01:12:36;;;;;;;5.00;2.72;;;;;;;19.34;60.90;100311.25;693295;28;1323;-79
2022/06/23 01:13:27;;;;;;;4.45;2.58;;;;;;;19.36;62.48;100321.78;694145;28;1333;-79
2022/06/23 01:14:11;;;;;;;4.30;2.80;;;;;;;19.38;62.43;100317.25;691837;28;4462;-78
2022/06/23 01:14:47;;;;;;;3.40;2.40;;;;;;;19.29;61.32;100326.50;698307;28;1076;-79
2022/06/23 01:15:29;;;;;;;4.03;2.60;;;;;;;19.27;61.20;100312.44;695784;28;1208;-79
2022/06/23 01:15:56;;;;;;;4.53;2.70;;;;;;;19.26;61.05;100321.34;693962;28;1370;-79
2022/06/23 01:16:22;;;;;;;4.80;2.78;;;;;;;19.24;60.84;100312.59;694716;28;1286;-79
2022/06/23 01:16:45;;;;;;;4.80;2.72;;;;;;;19.29;61.50;100317.72;692752;28;4532;-79
2022/06/23 01:17:14;;;;;;;4.03;2.60;;;;;;;19.28;61.26;100322.13;694012;28;1380;-79
2022/06/23 01:17:41;;;;;;;3.65;2.70;;;;;;;19.24;60.79;100312.59;694122;28;1022;-78
2022/06/23 01:18:05;;;;;;;5.38;2.63;;;;;;;19.27;61.33;100320.41;693123;28;829;-79
2022/06/23 01:18:32;;;;;;;6.15;2.60;;;;;;;19.34;60.09;100318.34;692468;28;1228;-79
2022/06/23 01:19:00;;;;;;;4.78;2.60;;;;;;;19.34;60.66;100318.34;690993;28;1313;-79
2022/06/23 01:20:02;;;;;;;4.03;2.60;;;;;;;19.35;61.88;100323.56;690617;28;1232;-79
2022/06/23 01:20:38;;;;;;;4.00;2.60;;;;;;;19.34;60.97;100319.22;691656;28;4773;-78
2022/06/23 01:21:06;;;;;;;5.05;2.60;;;;;;;19.34;60.72;100315.69;691612;28;1406;-79
2022/06/23 01:21:36;;;;;;;4.10;2.58;;;;;;;19.37;61.27;100324.34;694970;28;1957;-79
2022/06/23 01:22:02;;;;;;;4.28;2.60;;;;;;;19.34;61.02;100318.34;696729;28;924;-79
2022/06/23 01:22:42;;;;;;;3.90;2.50;;;;;;;19.34;60.81;100319.22;695912;28;1636;-79
2022/06/23 01:23:20;;;;;;;5.03;2.80;;;;;;;19.44;61.33;100316.09;699129;28;4716;-78
2022/06/23 01:24:02;;;;;;;4.03;2.85;;;;;;;19.43;61.67;100319.72;693080;28;840;-79
2022/06/23 01:24:44;;;;;;;3.95;2.65;;;;;;;19.48;62.13;100328.28;694239;28;1401;-78
2022/06/23 01:25:23;;;;;;;5.10;2.70;;;;;;;19.43;61.31;100319.72;692135;28;1080;-79
2022/06/23 01:26:14;;;;;;;4.22;2.85;;;;;;;19.49;62.44;100322.06;691570;28;5508;-79
2022/06/23 01:27:02;;;;;;;4.47;2.65;;;;;;;19.42;62.16;100317.97;693901;28;1235;-79
2022/06/23 01:27:53;;;;;;;4.25;2.50;;;;;;;19.47;59.20;100318.63;691510;28;1358;-78
2022/06/23 01:28:27;;;;;;;5.15;2.80;;;;;;;19.59;58.73;100318.03;695862;28;1215;-78
2022/06/23 01:28:50;;;;;;;4.68;2.60;;;;;;;19.74;57.98;100319.97;696930;28;4262;-79
2022/06/23 01:29:39;;;;;;;4.28;2.47;;;;;;;19.69;59.33;100313.16;694582;28;1312;-79
2022/06/23 01:30:05;;;;;;;4.50;2.80;;;;;;;19.66;59.04;100314.16;683417;28;1312;-79
2022/06/23 01:30:32;;;;;;;5.32;2.60;;;;;;;19.67;59.27;100320.31;679827;28;1297;-79
2022/06/23 01:31:03;;;;;;;3.45;2.40;;;;;;;19.63;59.22;100322.25;687483;28;1283;-79
2022/06/23 01:31:30;;;;;;;4.25;2.47;;;;;;;19.57;60.11;100315.44;690372;28;1310;-79
2022/06/23 01:31:56;;;;;;;4.40;2.58;;;;;;;19.55;60.31;100313.81;692596;28;4560;-79
2022/06/23 01:32:24;;;;;;;4.35;2.50;;;;;;;19.52;60.72;100312.19;693459;28;1441;-79
2022/06/23 01:33:23;;;;;;;4.28;2.55;;;;;;;19.53;60.43;100313.03;693164;28;1048;-80
2022/06/23 01:33:52;;;;;;;4.13;2.45;;;;;;;19.50;59.73;100318.47;686416;28;1329;-79
2022/06/23 01:34:22;;;;;;;4.55;2.65;;;;;;;19.51;60.50;100330.81;692076;28;1104;-79
2022/06/23 01:34:59;;;;;;;3.50;2.45;;;;;;;19.49;59.30;100320.25;693324;28;4261;-79
2022/06/23 01:35:38;;;;;;;4.40;2.70;;;;;;;19.51;58.98;100320.22;695151;28;1221;-79
2022/06/23 01:35:58;;;;;;;4.20;2.67;;;;;;;19.52;58.62;100319.25;691326;28;1323;-79
2022/06/23 01:36:42;;;;;;;4.07;2.80;;;;;;;19.52;59.18;100333.38;693893;28;1078;-80
2022/06/23 01:37:27;;;;;;;3.75;2.55;;;;;;;19.51;59.22;100325.50;694376;28;963;-79
2022/06/23 01:38:02;;;;;;;4.45;2.78;;;;;;;19.49;59.99;100320.25;701259;28;4281;-79
2022/06/23 01:38:35;;;;;;;5.28;2.58;;;;;;;19.46;59.80;100332.81;699121;28;1544;-79
2022/06/23 01:39:10;;;;;;;4.57;2.60;;;;;;;19.52;59.07;100322.78;695387;28;1406;-79
2022/06/23 01:39:46;;;;;;;4.53;2.50;;;;;;;19.51;59.87;100330.81;693680;28;1347;-79
2022/06/23 01:40:27;;;;;;;4.05;2.60;;;;;;;19.55;58.67;100324.44;690069;28;1019;-79
2022/06/23 01:40:58;;;;;;;4.40;2.63;;;;;;;19.58;59.27;100329.59;694202;28;4358;-78
2022/06/23 01:41:31;;;;;;;3.60;2.40;;;;;;;19.62;58.86;100328.50;693659;28;1910;-78
2022/06/23 01:41:58;;;;;;;5.20;2.50;;;;;;;19.64;58.29;100334.56;691143;28;1233;-78
2022/06/23 01:42:38;;;;;;;3.78;2.90;;;;;;;19.64;58.16;100336.38;693516;28;1713;-78
2022/06/23 01:43:04;;;;;;;4.63;2.80;;;;;;;19.64;58.21;100331.06;690614;28;1385;-79
2022/06/23 01:43:42;;;;;;;4.63;2.70;;;;;;;19.67;57.88;100330.94;695414;28;923;-81
2022/06/23 01:44:18;;;;;;;4.47;2.60;;;;;;;19.66;57.99;100340.69;698004;28;4717;-79
2022/06/23 01:45:02;;;;;;;4.97;2.70;;;;;;;19.67;58.63;100330.94;699559;28;1541;-79
2022/06/23 01:45:30;;;;;;;4.80;2.70;;;;;;;19.67;58.81;100326.47;699541;28;1339;-79
2022/06/23 01:46:22;;;;;;;4.10;2.53;;;;;;;19.64;60.11;100331.06;697566;28;1284;-79
2022/06/23 01:46:46;;;;;;;3.58;2.35;;;;;;;19.59;60.18;100335.72;693263;28;4241;-79
2022/06/23 01:47:19;;;;;;;3.25;2.20;;;;;;;19.56;59.51;100328.78;695438;28;1359;-79
2022/06/23 01:47:45;;;;;;;3.88;2.55;;;;;;;19.54;58.74;100334.16;696833;28;1191;-79
2022/06/23 01:48:17;;;;;;;3.83;2.40;;;;;;;19.52;59.47;100333.38;695444;28;1228;-79
2022/06/23 01:48:52;;;;;;;3.92;2.60;;;;;;;19.52;59.17;100335.16;695786;28;1045;-79
2022/06/23 01:49:23;;;;;;;3.50;2.60;;;;;;;19.52;60.70;100333.38;696300;28;1152;-79
2022/06/23 01:49:46;;;;;;;3.80;2.40;;;;;;;19.48;60.75;100341.53;689624;28;4341;-79
2022/06/23 01:50:52;;;;;;;4.28;2.60;;;;;;;19.52;60.87;100336.03;693508;28;939;-79
2022/06/23 01:51:40;;;;;;;4.68;2.45;;;;;;;19.48;60.48;100342.41;684925;28;1499;-79
2022/06/23 01:52:07;;;;;;;3.28;2.40;;;;;;;19.45;60.38;100339.03;679968;28;2208;-78
2022/06/23 01:52:27;;;;;;;3.78;2.50;;;;;;;19.43;60.74;100338.25;683272;28;1199;-79
2022/06/23 01:52:48;;;;;;;3.80;2.50;;;;;;;19.41;60.85;100335.66;680247;28;4306;-78
2022/06/23 01:53:17;;;;;;;4.78;2.67;;;;;;;19.38;60.94;100328.72;681158;28;1313;-79
2022/06/23 01:53:37;;;;;;;4.20;2.65;;;;;;;19.36;60.63;100335.88;681571;28;873;-79
2022/06/23 01:54:21;;;;;;;5.10;3.00;;;;;;;19.30;60.84;100338.84;688543;28;1275;-79
2022/06/23 01:54:42;;;;;;;3.33;2.30;;;;;;;19.42;59.91;100341.84;690631;28;1353;-78
2022/06/23 01:55:14;;;;;;;4.03;2.50;;;;;;;19.39;59.93;100332.22;692607;28;1014;-78
2022/06/23 01:55:44;;;;;;;4.90;2.45;;;;;;;19.37;60.69;100334.97;695354;28;1026;-79
2022/06/23 01:56:23;;;;;;;4.45;2.40;;;;;;;19.38;60.31;100330.50;698258;28;4677;-79
2022/06/23 01:56:55;;;;;;;3.97;2.67;;;;;;;19.41;60.89;100327.72;699453;28;955;-79
2022/06/23 01:57:30;;;;;;;5.28;2.78;;;;;;;19.37;61.16;100334.09;695285;28;1484;-79
2022/06/23 01:57:57;;;;;;;4.15;2.67;;;;;;;19.38;60.69;100330.50;697613;28;1823;-79
2022/06/23 01:58:22;;;;;;;4.20;2.63;;;;;;;19.42;60.52;100328.59;694696;28;1325;-79
2022/06/23 01:58:47;;;;;;;3.78;2.50;;;;;;;19.39;61.69;100335.72;692136;28;4436;-79
2022/06/23 01:59:41;;;;;;;3.50;2.47;;;;;;;19.42;59.67;100340.03;692532;28;1477;-79
2022/06/23 02:00:16;;;;;;;3.58;2.45;;;;;;;19.38;60.94;100331.38;693896;28;919;-79
2022/06/23 02:00:42;;;;;;;3.90;2.50;;;;;;;19.35;60.67;100330.66;697412;28;930;-79
2022/06/23 02:01:06;;;;;;;5.53;2.55;;;;;;;19.39;59.84;100330.44;694730;28;1650;-79
2022/06/23 02:01:45;;;;;;;3.80;2.50;;;;;;;19.38;59.39;100330.50;694249;28;1906;-78
2022/06/23 02:02:11;;;;;;;4.50;2.63;;;;;;;19.35;60.00;100336.81;698039;28;5119;-79
2022/06/23 02:03:09;;;;;;;3.90;2.50;;;;;;;19.37;58.93;100334.97;698140;28;942;-79
2022/06/23 02:03:41;;;;;;;4.43;2.80;;;;;;;19.42;58.88;100334.72;701830;28;1175;-79
2022/06/23 02:04:10;;;;;;;4.97;2.60;;;;;;;19.43;58.87;100332.97;699908;28;1368;-78
2022/06/23 02:04:58;;;;;;;4.00;2.60;;;;;;;19.45;59.86;100336.38;699131;28;1814;-79
2022/06/23 02:05:40;;;;;;;4.18;2.67;;;;;;;19.45;59.13;100331.94;691849;28;4976;-79
2022/06/23 02:06:13;;;;;;;4.15;2.72;;;;;;;19.48;58.74;100333.59;692481;28;1357;-79
2022/06/23 02:06:57;;;;;;;4.07;2.72;;;;;;;19.42;59.52;100336.53;695185;28;1253;-79
2022/06/23 02:07:25;;;;;;;4.70;2.40;;;;;;;19.41;59.08;100330.34;699594;28;3516;-79
2022/06/23 02:08:11;;;;;;;3.95;2.58;;;;;;;19.40;59.14;100331.31;698490;28;4399;-79
2022/06/23 02:08:37;;;;;;;3.70;2.38;;;;;;;19.40;59.18;100334.81;703836;27;1458;-79
2022/06/23 02:09:23;;;;;;;4.88;2.60;;;;;;;19.47;59.15;100330.09;702691;27;966;-78
2022/06/23 02:09:50;;;;;;;4.15;2.50;;;;;;;19.44;59.67;100337.31;686963;28;1688;-79
2022/06/23 02:10:39;;;;;;;5.82;2.95;;;;;;;19.49;59.12;100332.66;692256;28;1306;-79
2022/06/23 02:11:11;;;;;;;4.50;2.83;;;;;;;19.51;58.87;100338.75;694054;28;4764;-79
2022/06/23 02:11:32;;;;;;;4.20;2.50;;;;;;;19.48;59.42;100333.59;697952;28;1823;-79
2022/06/23 02:11:53;;;;;;;4.00;2.50;;;;;;;19.52;58.88;100337.81;699310;28;1445;-79
2022/06/23 02:12:20;;;;;;;4.60;2.60;;;;;;;19.55;58.66;100332.38;701883;28;1198;-78
2022/06/23 02:12:59;;;;;;;4.82;2.58;;;;;;;19.50;60.33;100334.38;696777;28;1626;-79
2022/06/23 02:13:40;;;;;;;3.70;2.40;;;;;;;19.50;59.64;100337.03;695366;28;1219;-79
2022/06/23 02:14:06;;;;;;;4.10;2.58;;;;;;;19.48;60.22;100341.53;692391;28;4723;-79
2022/06/23 02:14:52;;;;;;;4.20;2.60;;;;;;;19.43;60.70;100341.75;689024;28;924;-79
2022/06/23 02:15:24;;;;;;;4.18;2.55;;;;;;;19.39;61.02;100342.84;694996;28;1154;-79
2022/06/23 02:16:00;;;;;;;4.40;2.60;;;;;;;19.33;60.30;100333.38;694067;28;1252;-79
2022/06/23 02:16:33;;;;;;;4.30;2.60;;;;;;;19.29;61.35;100339.75;692254;28;1244;-79
2022/06/23 02:17:22;;;;;;;3.90;2.70;;;;;;;19.27;61.65;100344.25;692661;28;4270;-79
2022/06/23 02:17:53;;;;;;;4.50;2.70;;;;;;;19.24;61.00;100344.41;682853;28;1353;-79
2022/06/23 02:18:17;;;;;;;3.55;2.50;;;;;;;19.22;60.53;100343.63;691489;28;1293;-79
2022/06/23 02:18:48;;;;;;;4.22;2.50;;;;;;;19.19;62.05;100335.78;693570;28;1089;-79
2022/06/23 02:19:30;;;;;;;4.50;2.50;;;;;;;19.17;60.39;100341.16;698665;28;1166;-79
2022/06/23 02:19:58;;;;;;;3.33;2.40;;;;;;;19.16;60.48;100342.13;694923;28;4353;-79
2022/06/23 02:20:36;;;;;;;4.40;2.40;;;;;;;19.16;60.27;100341.25;695459;28;1060;-79
2022/06/23 02:21:04;;;;;;;3.90;2.60;;;;;;;19.24;59.99;100344.41;698496;28;960;-79
2022/06/23 02:21:39;;;;;;;4.13;2.88;;;;;;;19.22;60.86;100347.13;696698;28;1969;-79
2022/06/23 02:22:18;;;;;;;5.72;2.70;;;;;;;19.19;60.32;100346.38;696737;28;883;-79
2022/06/23 02:22:43;;;;;;;4.55;2.80;;;;;;;19.15;59.96;100351.00;699350;28;4220;-79
2022/06/23 02:23:12;;;;;;;4.60;2.58;;;;;;;19.15;60.08;100339.50;693008;28;1197;-79
2022/06/23 02:23:40;;;;;;;4.60;2.78;;;;;;;19.13;60.02;100344.03;690931;28;1096;-79
2022/06/23 02:24:05;;;;;;;4.50;2.85;;;;;;;19.12;60.02;100351.13;691878;28;1190;-79
2022/06/23 02:25:06;;;;;;;4.47;2.70;;;;;;;19.12;60.37;100352.91;696353;28;974;-79
2022/06/23 02:25:34;;;;;;;4.22;2.60;;;;;;;19.11;60.47;100352.06;691693;28;1828;-79
2022/06/23 02:26:01;;;;;;;5.65;2.60;;;;;;;19.09;60.37;100359.19;691331;28;5511;-79
2022/06/23 02:27:03;;;;;;;4.93;2.80;;;;;;;19.06;60.63;100356.69;691523;28;1246;-79
2022/06/23 02:27:40;;;;;;;5.32;2.60;;;;;;;19.04;60.79;100355.91;693815;28;1506;-79
2022/06/23 02:28:14;;;;;;;3.80;2.53;;;;;;;19.02;60.80;100355.13;697131;28;1251;-79
2022/06/23 02:28:46;;;;;;;3.75;2.35;;;;;;;19.00;60.72;100356.97;695581;28;1461;-79
2022/06/23 02:29:19;;;;;;;4.55;2.63;;;;;;;19.05;62.27;100352.31;692733;28;4657;-79
2022/06/23 02:30:07;;;;;;;4.97;2.70;;;;;;;19.04;62.06;100353.28;697158;28;1350;-79
2022/06/23 02:30:33;;;;;;;3.90;2.58;;;;;;;19.01;62.13;100358.69;694111;28;1336;-79
2022/06/23 02:31:03;;;;;;;4.90;2.65;;;;;;;18.98;62.49;100359.72;695681;28;1154;-79
2022/06/23 02:31:49;;;;;;;3.85;2.65;;;;;;;18.97;62.84;100357.97;696351;28;1023;-79
2022/06/23 02:32:18;;;;;;;3.63;2.40;;;;;;;18.93;62.62;100355.50;693993;28;1068;-79
2022/06/23 02:33:00;;;;;;;4.28;2.70;;;;;;;18.92;62.07;100352.03;699307;28;882;-79